This is the latest recevied weather packets stored in our database for station/object KC5AV. If no packets are shown the sender has not sent any weather packets the latest 10 day(s).
| Time | Temp. | Humidity | Pressure | Rain* | Wind** | Luminosity | Snow |
|---|---|---|---|---|---|---|---|
| 1777933669 | 26.67° C | 44% | 1010.6 hPa | 0 mm | - | 292 W/m² | - |
| 1777933366 | 27.22° C | 43% | 1010.8 hPa | 0 mm | - | 306 W/m² | - |
| 1777933064 | 27.22° C | 44% | 1010.8 hPa | 0 mm | - | 316 W/m² | - |
| 1777932761 | 27.78° C | 43% | 1011 hPa | 0 mm | - | 334 W/m² | - |
| 1777932458 | 27.78° C | 44% | 1011.2 hPa | 0 mm | - | 393 W/m² | - |
| 1777932155 | 27.22° C | 45% | 1011.1 hPa | 0 mm | - | 438 W/m² | - |
| 1777931852 | 27.22° C | 45% | 1011 hPa | 0 mm | - | 399 W/m² | - |
| 1777931548 | 27.78° C | 45% | 1011.1 hPa | 0 mm | - | 474 W/m² | - |
| 1777931245 | 27.22° C | 46% | 1011.2 hPa | 0 mm | - | 508 W/m² | - |
| 1777930941 | 27.22° C | 43% | 1011.2 hPa | 0 mm | - | 499 W/m² | - |
| 1777930638 | 27.22° C | 45% | 1011.5 hPa | 0 mm | - | 499 W/m² | - |
| 1777930334 | 27.22° C | 48% | 1011.4 hPa | 0 mm | - | 554 W/m² | - |
| 1777930031 | 27.22° C | 45% | 1011.7 hPa | 0 mm | - | 458 W/m² | - |
| 1777929728 | 27.22° C | 46% | 1011.4 hPa | 0 mm | - | 570 W/m² | - |
| 1777929425 | 27.22° C | 47% | 1011.8 hPa | 0 mm | - | 571 W/m² | - |
| 1777929121 | 26.67° C | 47% | 1011.8 hPa | 0 mm | - | 620 W/m² | - |
| 1777928819 | 27.22° C | 45% | 1011.9 hPa | 0 mm | - | 554 W/m² | - |
| 1777928516 | 26.67° C | 46% | 1012.2 hPa | 0 mm | - | 606 W/m² | - |
| 1777928213 | 27.22° C | 44% | 1012.3 hPa | 0 mm | - | 614 W/m² | - |
| 1777927910 | 27.22° C | 45% | 1012.3 hPa | 0 mm | - | 500 W/m² | - |
| 1777927609 | 27.22° C | 48% | 1012.3 hPa | 0 mm | - | 732 W/m² | - |
| 1777927307 | 26.67° C | 50% | 1012.5 hPa | 0 mm | - | 725 W/m² | - |
| 1777927006 | 26.67° C | 45% | 1012.8 hPa | 0 mm | - | 666 W/m² | - |
| 1777926703 | 26.67° C | 46% | 1012.8 hPa | 0 mm | - | 619 W/m² | - |
| 1777926403 | 26.67° C | 48% | 1012.8 hPa | 0 mm | - | 618 W/m² | - |
* Rain latest hour (hover to see other rain measurements)
** Current wind speed in m/s (hover to see current wind gust speed)